createdAt,value
2024-03-12T00:00:32.765Z,481.1
2024-03-12T00:03:32.490Z,481.8
2024-03-12T00:06:32.493Z,481.0
2024-03-12T00:09:32.531Z,479.5
2024-03-12T00:12:32.582Z,478.0
2024-03-12T00:15:32.510Z,475.7
2024-03-12T00:18:32.570Z,476.4
2024-03-12T00:21:32.496Z,475.0
2024-03-12T00:24:32.948Z,473.6
2024-03-12T00:27:32.523Z,472.9
2024-03-12T00:30:32.833Z,472.3
2024-03-12T00:33:32.604Z,469.8
2024-03-12T00:36:32.517Z,471.6
2024-03-12T00:39:32.526Z,467.5
2024-03-12T00:42:32.512Z,466.1
2024-03-12T00:45:32.753Z,467.9
2024-03-12T00:48:32.707Z,467.2
2024-03-12T00:51:32.541Z,467.2
2024-03-12T00:54:32.552Z,466.9
2024-03-12T00:57:32.510Z,466.1
2024-03-12T01:00:32.674Z,468.3
2024-03-12T01:03:32.457Z,466.5
2024-03-12T01:06:32.598Z,468.3
2024-03-12T01:09:32.476Z,469.6
2024-03-12T01:12:32.504Z,471.0
2024-03-12T01:15:32.622Z,473.1
2024-03-12T01:18:32.668Z,472.9
2024-03-12T01:21:32.552Z,473.0
2024-03-12T01:24:33.031Z,474.1
2024-03-12T01:27:32.524Z,474.2
2024-03-12T01:30:32.584Z,474.4
2024-03-12T01:33:32.730Z,471.9
2024-03-12T01:36:32.557Z,466.7
2024-03-12T01:39:32.506Z,465.8
2024-03-12T01:42:32.659Z,461.8
2024-03-12T01:45:32.666Z,460.0
2024-03-12T01:48:32.924Z,457.3
2024-03-12T01:51:32.628Z,456.4
2024-03-12T01:54:32.623Z,454.5
2024-03-12T01:57:32.518Z,455.5
2024-03-12T02:00:32.936Z,456.4
2024-03-12T02:03:32.555Z,452.7
2024-03-12T02:06:32.599Z,456.4
2024-03-12T02:09:32.540Z,457.3
2024-03-12T02:12:32.556Z,464.5
2024-03-12T02:15:32.545Z,461.8
2024-03-12T02:18:32.665Z,462.7
2024-03-12T02:21:32.607Z,462.7
2024-03-12T02:24:32.635Z,460.9
2024-03-12T02:27:32.487Z,462.7
2024-03-12T02:30:33.251Z,464.5
2024-03-12T02:33:32.639Z,467.3
2024-03-12T02:36:32.519Z,464.9
2024-03-12T02:39:32.539Z,461.3
2024-03-12T02:42:32.695Z,458.2
2024-03-12T02:45:34.260Z,459.1
2024-03-12T02:48:32.685Z,458.8
2024-03-12T02:51:32.732Z,458.4
2024-03-12T02:54:32.542Z,460.0
2024-03-12T02:57:32.544Z,459.1
2024-03-12T03:00:33.117Z,457.3
2024-03-12T03:03:32.491Z,455.5
2024-03-12T03:06:32.505Z,454.7
2024-03-12T03:09:32.543Z,452.7
2024-03-12T03:12:32.609Z,455.5
2024-03-12T03:15:32.631Z,451.9
2024-03-12T03:18:32.864Z,450.0
2024-03-12T03:21:32.586Z,449.1
2024-03-12T03:24:32.547Z,449.1
2024-03-12T03:27:32.573Z,449.3
2024-03-12T03:30:32.568Z,446.4
2024-03-12T03:33:32.624Z,448.3
2024-03-12T03:36:32.671Z,444.5
2024-03-12T03:39:32.689Z,445.5
2024-03-12T03:42:32.676Z,442.8
2024-03-12T03:45:32.589Z,442.1
2024-03-12T03:48:32.640Z,439.5
2024-03-12T03:51:32.605Z,441.3
2024-03-12T03:54:32.580Z,440.1
2024-03-12T03:57:32.549Z,441.8
2024-03-12T04:00:33.057Z,443.7
2024-03-12T04:03:32.522Z,443.1
2024-03-12T04:06:32.530Z,443.5
2024-03-12T04:09:32.566Z,440.6
2024-03-12T04:12:32.561Z,442.6
2024-03-12T04:15:32.560Z,445.4
2024-03-12T04:18:32.721Z,447.8
2024-03-12T04:21:32.592Z,449.1
2024-03-12T04:24:32.893Z,449.8
2024-03-12T04:27:32.606Z,448.7
2024-03-12T04:30:32.798Z,450.6
2024-03-12T04:33:32.677Z,454.3
2024-03-12T04:36:32.564Z,455.2
2024-03-12T04:39:32.806Z,454.8
2024-03-12T04:42:32.504Z,452.3
2024-03-12T04:45:32.647Z,450.4
2024-03-12T04:48:32.763Z,447.9
2024-03-12T04:51:32.628Z,446.3
2024-03-12T04:54:33.537Z,446.6
2024-03-12T04:57:32.538Z,446.9
2024-03-12T05:00:33.444Z,447.5
2024-03-12T05:03:32.793Z,447.8
2024-03-12T05:06:32.663Z,445.9
2024-03-12T05:09:32.543Z,448.0
2024-03-12T05:12:32.517Z,450.5
2024-03-12T05:15:32.639Z,452.4
2024-03-12T05:18:32.718Z,451.9
2024-03-12T05:21:32.556Z,448.5
2024-03-12T05:24:32.601Z,446.4
2024-03-12T05:27:33.215Z,447.2
2024-03-12T05:30:32.881Z,449.6
2024-03-12T05:33:33.194Z,454.7
2024-03-12T05:36:32.588Z,449.5
2024-03-12T05:39:32.518Z,449.8
2024-03-12T05:42:32.537Z,448.8
2024-03-12T05:45:32.664Z,457.2
2024-03-12T05:48:32.677Z,448.5
2024-03-12T05:51:32.578Z,443.6
2024-03-12T05:54:32.584Z,441.9
2024-03-12T05:57:32.582Z,442.9
2024-03-12T06:00:32.703Z,441.0
2024-03-12T06:03:32.501Z,440.1
2024-03-12T06:06:32.556Z,443.3
2024-03-12T06:09:32.505Z,442.9
2024-03-12T06:12:32.526Z,446.8
2024-03-12T06:15:32.714Z,450.4
2024-03-12T06:18:32.596Z,451.7
2024-03-12T06:21:32.623Z,451.1
2024-03-12T06:24:33.437Z,451.6
2024-03-12T06:27:34.707Z,453.3
2024-03-12T06:30:32.729Z,452.9
2024-03-12T06:33:32.492Z,455.5
2024-03-12T06:36:32.557Z,450.9
2024-03-12T06:39:32.492Z,452.8
2024-03-12T06:42:32.445Z,452.9
2024-03-12T06:45:32.569Z,452.1
2024-03-12T06:48:32.587Z,450.4
2024-03-12T06:51:32.484Z,448.4
2024-03-12T06:54:32.987Z,443.5
2024-03-12T06:57:32.491Z,453.5
2024-03-12T07:00:32.565Z,445.4
2024-03-12T07:03:32.940Z,447.2
2024-03-12T07:06:32.472Z,443.4
2024-03-12T07:09:32.499Z,444.8
2024-03-12T07:12:32.528Z,442.8
2024-03-12T07:15:32.710Z,441.2
2024-03-12T07:18:32.883Z,441.6
2024-03-12T07:21:32.481Z,440.8
2024-03-12T07:24:32.660Z,440.2
2024-03-12T07:27:32.477Z,437.9
2024-03-12T07:30:32.506Z,439.4
2024-03-12T07:33:32.710Z,442.7
2024-03-12T07:36:32.624Z,447.2
2024-03-12T07:39:32.671Z,448.7
2024-03-12T07:42:32.450Z,452.9
2024-03-12T07:45:32.615Z,453.1
2024-03-12T07:48:32.616Z,460.5
2024-03-12T07:51:35.539Z,461.5
2024-03-12T07:54:32.509Z,459.2
2024-03-12T07:57:34.881Z,459.2
2024-03-12T08:00:32.946Z,460.3
2024-03-12T08:03:32.536Z,462.9
2024-03-12T08:06:32.568Z,458.6
2024-03-12T08:09:32.555Z,453.5
2024-03-12T08:12:34.226Z,449.4
2024-03-12T08:15:32.600Z,456.4
2024-03-12T08:21:32.579Z,449.5
2024-03-12T08:24:32.576Z,449.9
2024-03-12T08:27:32.543Z,447.6
2024-03-12T08:30:33.636Z,451.9
2024-03-12T08:33:32.665Z,446.1
2024-03-12T08:36:32.627Z,445.2
2024-03-12T08:39:32.570Z,446.6
2024-03-12T08:42:32.630Z,446.5
2024-03-12T08:45:33.668Z,447.2
2024-03-12T08:48:32.573Z,445.1
2024-03-12T08:51:32.549Z,441.4
2024-03-12T08:54:32.652Z,439.1
2024-03-12T08:57:32.561Z,442.6
2024-03-12T09:00:33.524Z,440.2
2024-03-12T09:03:32.786Z,439.6
2024-03-12T09:06:32.634Z,439.0
2024-03-12T09:09:32.545Z,442.1
2024-03-12T09:12:32.892Z,442.5
2024-03-12T09:15:32.496Z,443.7
2024-03-12T09:18:32.739Z,444.1
2024-03-12T09:21:32.727Z,443.5
2024-03-12T09:24:34.965Z,444.0
2024-03-12T09:27:32.550Z,441.8
2024-03-12T09:30:32.652Z,443.2
2024-03-12T09:33:32.742Z,442.5
2024-03-12T09:36:32.537Z,441.4
2024-03-12T09:39:32.614Z,443.2
2024-03-12T09:42:32.592Z,443.3
2024-03-12T09:45:32.730Z,442.7
2024-03-12T09:48:32.797Z,444.4
2024-03-12T09:51:32.562Z,446.8
2024-03-12T09:54:32.532Z,447.6
2024-03-12T09:57:33.980Z,440.6
2024-03-12T10:00:32.939Z,439.1
2024-03-12T10:03:32.908Z,438.9
2024-03-12T10:06:32.563Z,438.5
2024-03-12T10:09:32.536Z,435.6
2024-03-12T10:12:32.583Z,435.5
2024-03-12T10:15:32.502Z,436.5
2024-03-12T10:18:32.842Z,436.5
2024-03-12T10:21:32.653Z,444.2
2024-03-12T10:24:32.536Z,438.9
2024-03-12T10:27:32.506Z,441.4
2024-03-12T10:30:32.748Z,442.4
2024-03-12T10:33:32.723Z,441.5
2024-03-12T10:36:33.083Z,442.8
2024-03-12T10:39:32.649Z,445.5
2024-03-12T10:42:33.558Z,449.1
2024-03-12T10:45:32.631Z,449.3
2024-03-12T10:48:32.961Z,448.6
2024-03-12T10:51:32.520Z,447.3
2024-03-12T10:54:34.400Z,445.6
2024-03-12T10:57:32.680Z,445.0
2024-03-12T11:00:32.629Z,445.8
2024-03-12T11:03:32.469Z,443.8
2024-03-12T11:06:32.673Z,444.1
2024-03-12T11:09:32.784Z,445.5
2024-03-12T11:12:32.568Z,448.0
2024-03-12T11:15:32.646Z,448.5
2024-03-12T11:18:32.632Z,449.8
2024-03-12T11:21:32.544Z,458.5
2024-03-12T11:24:32.505Z,459.8
2024-03-12T11:27:32.578Z,456.3
2024-03-12T11:30:32.616Z,458.3
2024-03-12T11:33:32.582Z,454.5
2024-03-12T11:36:32.632Z,457.7
2024-03-12T11:39:33.093Z,461.6
2024-03-12T11:42:32.978Z,462.5
2024-03-12T11:45:32.506Z,461.4
2024-03-12T11:48:32.537Z,465.2
2024-03-12T11:51:32.570Z,464.6
2024-03-12T11:54:32.578Z,463.2
2024-03-12T11:57:32.548Z,461.7
2024-03-12T12:00:32.847Z,461.2
2024-03-12T12:03:32.540Z,463.4
2024-03-12T12:06:32.668Z,462.8
2024-03-12T12:09:33.951Z,456.3
2024-03-12T12:12:32.614Z,453.9
2024-03-12T12:15:32.560Z,453.2
2024-03-12T12:18:32.675Z,449.8
2024-03-12T12:21:32.604Z,447.3
2024-03-12T12:24:32.954Z,448.1
2024-03-12T12:27:32.536Z,446.7
2024-03-12T12:30:34.078Z,448.2
2024-03-12T12:33:32.724Z,448.4
2024-03-12T12:36:32.618Z,451.6
2024-03-12T12:39:40.810Z,451.0
2024-03-12T12:42:32.545Z,450.2
2024-03-12T12:45:32.637Z,450.5
2024-03-12T12:48:32.650Z,450.8
2024-03-12T12:51:32.589Z,449.4
2024-03-12T12:54:33.367Z,450.9
2024-03-12T12:57:32.542Z,452.2
2024-03-12T13:00:32.839Z,446.7
2024-03-12T13:03:32.555Z,451.3
2024-03-12T13:06:32.598Z,453.4
2024-03-12T13:09:32.527Z,456.5
2024-03-12T13:12:32.506Z,453.9
2024-03-12T13:15:32.600Z,453.5
2024-03-12T13:18:32.694Z,453.5
2024-03-12T13:21:32.629Z,458.7
2024-03-12T13:24:32.545Z,459.9
2024-03-12T13:27:32.819Z,460.2
2024-03-12T13:30:35.127Z,459.7
2024-03-12T13:33:32.721Z,457.9
2024-03-12T13:36:32.674Z,453.4
2024-03-12T13:39:32.967Z,452.4
2024-03-12T13:42:32.695Z,451.5
2024-03-12T13:45:32.685Z,451.5
2024-03-12T13:48:32.685Z,450.6
2024-03-12T13:51:32.618Z,452.6
2024-03-12T13:54:32.868Z,453.8
2024-03-12T13:57:32.518Z,454.4
2024-03-12T14:00:32.885Z,450.8
2024-03-12T14:03:33.119Z,448.1
2024-03-12T14:06:32.566Z,448.3
2024-03-12T14:09:32.782Z,450.6
2024-03-12T14:12:32.739Z,449.8
2024-03-12T14:15:32.645Z,452.9
2024-03-12T14:18:32.845Z,451.6
2024-03-12T14:21:33.637Z,453.0
2024-03-12T14:24:32.530Z,451.4
2024-03-12T14:27:32.913Z,450.1
2024-03-12T14:30:32.581Z,450.3
2024-03-12T14:33:32.602Z,449.2
2024-03-12T14:36:32.598Z,455.0
2024-03-12T14:39:32.514Z,452.3
2024-03-12T14:42:32.566Z,452.8
2024-03-12T14:45:32.810Z,452.9
2024-03-12T14:48:32.604Z,454.7
2024-03-12T14:51:32.614Z,456.0
2024-03-12T14:54:32.574Z,453.0
2024-03-12T14:57:32.610Z,455.3
2024-03-12T15:00:35.537Z,455.8
2024-03-12T15:03:32.701Z,461.0
2024-03-12T15:06:32.640Z,455.2
2024-03-12T15:09:32.528Z,457.6
2024-03-12T15:12:32.558Z,456.5
2024-03-12T15:15:32.558Z,454.8
2024-03-12T15:18:34.133Z,455.8
2024-03-12T15:21:32.669Z,456.8
2024-03-12T15:24:32.869Z,459.6
2024-03-12T15:27:32.515Z,460.8
2024-03-12T15:30:32.633Z,460.5
2024-03-12T15:33:33.272Z,462.5
2024-03-12T15:36:32.536Z,463.3
2024-03-12T15:39:32.609Z,464.8
2024-03-12T15:42:32.479Z,469.1
2024-03-12T15:45:33.390Z,469.8
2024-03-12T15:48:32.780Z,472.2
2024-03-12T15:51:32.526Z,475.4
2024-03-12T15:54:32.649Z,473.5
2024-03-12T15:57:32.570Z,475.5
2024-03-12T16:00:32.896Z,476.4
2024-03-12T16:03:32.774Z,475.9
2024-03-12T16:09:32.616Z,477.3
2024-03-12T16:12:32.609Z,474.1
2024-03-12T16:15:33.119Z,472.1
2024-03-12T16:18:33.043Z,474.7
2024-03-12T16:21:32.818Z,469.0
2024-03-12T16:24:33.066Z,471.1
2024-03-12T16:27:32.604Z,472.3
2024-03-12T16:30:32.899Z,471.4
2024-03-12T16:33:32.794Z,473.6
2024-03-12T16:36:34.496Z,479.4
2024-03-12T16:39:32.746Z,476.2
2024-03-12T16:42:34.554Z,473.9
2024-03-12T16:45:32.761Z,474.1
2024-03-12T16:48:35.330Z,472.1
2024-03-12T16:51:32.656Z,468.4
2024-03-12T16:54:32.975Z,466.8
2024-03-12T16:57:32.695Z,468.1
2024-03-12T17:00:32.813Z,469.4
2024-03-12T17:03:35.177Z,472.5
2024-03-12T17:06:32.476Z,480.5
2024-03-12T17:09:32.523Z,478.0
2024-03-12T17:12:32.530Z,478.2
2024-03-12T17:15:32.496Z,479.4
2024-03-12T17:18:32.998Z,477.9
2024-03-12T17:30:32.820Z,480.3
2024-03-12T17:33:32.613Z,478.3
2024-03-12T17:36:32.841Z,476.0
2024-03-12T17:39:32.498Z,476.6
2024-03-12T17:42:32.510Z,476.3
2024-03-12T17:45:33.085Z,476.2
2024-03-12T17:48:33.153Z,478.9
2024-03-12T17:51:32.494Z,484.9
2024-03-12T17:54:32.581Z,472.7
2024-03-12T17:57:32.678Z,476.5
2024-03-12T18:00:32.911Z,475.5
2024-03-12T18:03:32.802Z,475.0
2024-03-12T18:06:32.498Z,472.5
2024-03-12T18:09:32.526Z,471.9
2024-03-12T18:12:32.511Z,472.8
2024-03-12T18:15:32.681Z,473.4
2024-03-12T18:18:32.614Z,470.0
2024-03-12T18:21:32.607Z,472.8
2024-03-12T18:24:32.499Z,477.1
2024-03-12T18:27:32.535Z,480.7
2024-03-12T18:30:32.800Z,482.0
2024-03-12T18:33:32.673Z,481.3
2024-03-12T18:36:32.553Z,481.6
2024-03-12T18:39:32.497Z,480.7
2024-03-12T18:42:32.563Z,481.9
2024-03-12T18:45:32.582Z,483.2
2024-03-12T18:48:32.948Z,483.8
2024-03-12T18:51:33.702Z,481.1
2024-03-12T18:54:32.497Z,483.6
2024-03-12T18:57:32.572Z,477.6
2024-03-12T19:00:32.783Z,474.9
2024-03-12T19:03:32.501Z,473.8
2024-03-12T19:06:42.917Z,473.5
2024-03-12T19:09:32.662Z,472.5
2024-03-12T19:12:32.628Z,468.8
2024-03-12T19:15:32.718Z,468.2
2024-03-12T19:18:34.428Z,471.3
2024-03-12T19:21:32.627Z,472.2
2024-03-12T19:24:34.576Z,468.9
2024-03-12T19:27:40.862Z,469.5
2024-03-12T19:30:32.684Z,468.5
2024-03-12T19:33:32.741Z,468.0
2024-03-12T19:36:32.474Z,470.1
2024-03-12T19:39:32.496Z,472.7
2024-03-12T19:42:32.503Z,471.8
2024-03-12T19:45:32.685Z,475.1
2024-03-12T19:48:36.885Z,469.5
2024-03-12T19:51:32.501Z,468.7
2024-03-12T19:54:32.635Z,468.2
2024-03-12T19:57:32.451Z,464.0
2024-03-12T20:00:32.771Z,463.0
2024-03-12T20:03:32.776Z,459.8
2024-03-12T20:06:33.249Z,460.3
2024-03-12T20:09:32.781Z,460.6
2024-03-12T20:12:32.499Z,461.7
2024-03-12T20:15:32.533Z,464.8
2024-03-12T20:18:32.853Z,461.3
2024-03-12T20:21:32.585Z,460.3
2024-03-12T20:24:32.552Z,459.4
2024-03-12T20:27:32.552Z,462.6
2024-03-12T20:30:34.376Z,460.8
2024-03-12T20:33:33.525Z,464.1
2024-03-12T20:36:32.567Z,466.2
2024-03-12T20:39:32.533Z,462.2
2024-03-12T20:42:34.541Z,466.6
2024-03-12T20:45:32.550Z,464.9
2024-03-12T20:48:32.729Z,464.9
2024-03-12T20:51:32.585Z,466.8
2024-03-12T20:54:32.615Z,470.2
2024-03-12T20:57:32.481Z,467.4
2024-03-12T21:00:32.777Z,470.7
2024-03-12T21:03:32.492Z,469.5
2024-03-12T21:06:32.515Z,470.2
2024-03-12T21:09:32.697Z,471.6
2024-03-12T21:12:32.943Z,468.2
2024-03-12T21:15:32.981Z,472.9
2024-03-12T21:18:32.773Z,467.2
2024-03-12T21:21:32.729Z,468.4
2024-03-12T21:24:33.111Z,468.5
2024-03-12T21:27:32.468Z,467.4
2024-03-12T21:30:32.687Z,463.8
2024-03-12T21:33:32.653Z,461.0
2024-03-12T21:36:32.490Z,462.0
2024-03-12T21:39:32.589Z,462.8
2024-03-12T21:42:32.545Z,460.9
2024-03-12T21:45:33.058Z,458.4
2024-03-12T21:48:32.562Z,459.2
2024-03-12T21:51:32.497Z,460.9
2024-03-12T21:54:32.558Z,459.4
2024-03-12T21:57:32.640Z,458.3
2024-03-12T22:00:32.597Z,462.2
2024-03-12T22:03:32.519Z,462.5
2024-03-12T22:06:32.489Z,466.2
2024-03-12T22:09:32.506Z,466.5
2024-03-12T22:12:32.605Z,464.5
2024-03-12T22:15:33.399Z,466.5
2024-03-12T22:18:32.593Z,466.5
2024-03-12T22:21:32.612Z,466.8
2024-03-12T22:24:32.575Z,470.1
2024-03-12T22:27:32.473Z,467.2
2024-03-12T22:30:32.875Z,468.5
2024-03-12T22:33:32.547Z,465.9
2024-03-12T22:36:32.558Z,464.3
2024-03-12T22:39:32.503Z,467.1
2024-03-12T22:42:32.561Z,465.5
2024-03-12T22:45:32.714Z,464.5
2024-03-12T22:48:32.667Z,465.7
2024-03-12T22:51:32.495Z,468.9
2024-03-12T22:54:32.604Z,470.2
2024-03-12T22:57:32.549Z,470.9
2024-03-12T23:00:32.758Z,468.5
2024-03-12T23:03:32.515Z,468.5
2024-03-12T23:06:32.505Z,467.8
2024-03-12T23:09:32.485Z,467.5
2024-03-12T23:12:32.636Z,469.5
2024-03-12T23:18:32.776Z,469.3
2024-03-12T23:33:32.581Z,461.9
2024-03-12T23:36:32.527Z,466.8
2024-03-12T23:39:32.850Z,466.3
2024-03-12T23:42:32.663Z,465.2
2024-03-12T23:45:32.526Z,467.2
2024-03-12T23:48:32.686Z,469.9
2024-03-12T23:51:32.556Z,471.1
2024-03-12T23:54:32.475Z,468.7
2024-03-12T23:57:32.555Z,468.3
